sensor_id;sensor_type;location;lat;lon;timestamp;P1;durP1;ratioP1;P2;durP2;ratioP2
59468;SDS011;45277;52.768;18.262;2024-01-30T00:00:04;42.05;;;18.98;;
59468;SDS011;45277;52.768;18.262;2024-01-30T00:01:37;33.92;;;18.13;;
59468;SDS011;45277;52.768;18.262;2024-01-30T00:03:08;35.35;;;17.75;;
59468;SDS011;45277;52.768;18.262;2024-01-30T00:04:39;35.05;;;18.33;;
59468;SDS011;45277;52.768;18.262;2024-01-30T00:06:11;36.72;;;17.58;;
59468;SDS011;45277;52.768;18.262;2024-01-30T00:07:42;39.28;;;17.88;;
59468;SDS011;45277;52.768;18.262;2024-01-30T00:09:14;31.65;;;17.15;;
59468;SDS011;45277;52.768;18.262;2024-01-30T00:10:45;34.28;;;17.73;;
59468;SDS011;45277;52.768;18.262;2024-01-30T00:12:17;41.92;;;18.77;;
59468;SDS011;45277;52.768;18.262;2024-01-30T00:13:48;40.78;;;18.80;;
59468;SDS011;45277;52.768;18.262;2024-01-30T00:15:19;30.92;;;17.48;;
59468;SDS011;45277;52.768;18.262;2024-01-30T00:16:51;32.13;;;18.63;;
59468;SDS011;45277;52.768;18.262;2024-01-30T00:18:22;35.45;;;17.80;;
59468;SDS011;45277;52.768;18.262;2024-01-30T00:19:53;40.35;;;18.05;;
59468;SDS011;45277;52.768;18.262;2024-01-30T00:21:25;32.72;;;18.45;;
59468;SDS011;45277;52.768;18.262;2024-01-30T00:22:56;37.00;;;18.20;;
59468;SDS011;45277;52.768;18.262;2024-01-30T00:24:27;33.78;;;17.80;;
59468;SDS011;45277;52.768;18.262;2024-01-30T00:25:58;30.42;;;16.63;;
59468;SDS011;45277;52.768;18.262;2024-01-30T00:27:29;38.33;;;18.60;;
59468;SDS011;45277;52.768;18.262;2024-01-30T00:29:01;37.72;;;18.63;;
59468;SDS011;45277;52.768;18.262;2024-01-30T00:30:32;39.00;;;17.88;;
59468;SDS011;45277;52.768;18.262;2024-01-30T00:32:04;34.05;;;16.85;;
59468;SDS011;45277;52.768;18.262;2024-01-30T00:33:35;37.65;;;17.48;;
59468;SDS011;45277;52.768;18.262;2024-01-30T00:35:07;34.13;;;17.20;;
59468;SDS011;45277;52.768;18.262;2024-01-30T00:36:40;34.60;;;18.08;;
59468;SDS011;45277;52.768;18.262;2024-01-30T00:38:11;33.17;;;17.23;;
59468;SDS011;45277;52.768;18.262;2024-01-30T00:39:43;32.53;;;17.30;;
59468;SDS011;45277;52.768;18.262;2024-01-30T00:41:14;35.85;;;18.10;;
59468;SDS011;45277;52.768;18.262;2024-01-30T00:42:47;31.38;;;17.30;;
59468;SDS011;45277;52.768;18.262;2024-01-30T00:44:19;38.60;;;18.85;;
59468;SDS011;45277;52.768;18.262;2024-01-30T00:45:50;37.13;;;20.20;;
59468;SDS011;45277;52.768;18.262;2024-01-30T00:47:23;37.72;;;19.52;;
59468;SDS011;45277;52.768;18.262;2024-01-30T00:48:54;33.17;;;19.52;;
59468;SDS011;45277;52.768;18.262;2024-01-30T00:50:25;42.67;;;21.27;;
59468;SDS011;45277;52.768;18.262;2024-01-30T00:51:57;41.40;;;20.13;;
59468;SDS011;45277;52.768;18.262;2024-01-30T00:53:28;36.15;;;19.60;;
59468;SDS011;45277;52.768;18.262;2024-01-30T00:55:00;39.47;;;20.10;;
59468;SDS011;45277;52.768;18.262;2024-01-30T00:56:31;34.95;;;19.02;;
59468;SDS011;45277;52.768;18.262;2024-01-30T00:58:02;34.42;;;18.90;;
59468;SDS011;45277;52.768;18.262;2024-01-30T00:59:34;33.88;;;18.92;;
59468;SDS011;45277;52.768;18.262;2024-01-30T01:01:06;32.17;;;17.58;;
59468;SDS011;45277;52.768;18.262;2024-01-30T01:02:38;35.33;;;18.38;;
59468;SDS011;45277;52.768;18.262;2024-01-30T01:04:12;34.15;;;17.08;;
59468;SDS011;45277;52.768;18.262;2024-01-30T01:05:43;33.05;;;16.77;;
59468;SDS011;45277;52.768;18.262;2024-01-30T01:07:14;35.88;;;17.65;;
59468;SDS011;45277;52.768;18.262;2024-01-30T01:08:45;30.90;;;16.48;;
59468;SDS011;45277;52.768;18.262;2024-01-30T01:10:17;33.97;;;17.65;;
59468;SDS011;45277;52.768;18.262;2024-01-30T01:11:48;35.38;;;16.77;;
59468;SDS011;45277;52.768;18.262;2024-01-30T01:13:20;34.25;;;16.33;;
59468;SDS011;45277;52.768;18.262;2024-01-30T01:14:51;29.77;;;16.92;;
59468;SDS011;45277;52.768;18.262;2024-01-30T01:16:22;34.20;;;15.80;;
59468;SDS011;45277;52.768;18.262;2024-01-30T01:17:54;29.52;;;16.48;;
59468;SDS011;45277;52.768;18.262;2024-01-30T01:19:25;34.35;;;17.10;;
59468;SDS011;45277;52.768;18.262;2024-01-30T01:20:56;29.20;;;15.55;;
59468;SDS011;45277;52.768;18.262;2024-01-30T01:22:28;33.40;;;17.27;;
59468;SDS011;45277;52.768;18.262;2024-01-30T01:23:59;34.72;;;16.58;;
59468;SDS011;45277;52.768;18.262;2024-01-30T01:25:30;35.03;;;16.80;;
59468;SDS011;45277;52.768;18.262;2024-01-30T01:27:02;33.40;;;16.50;;
59468;SDS011;45277;52.768;18.262;2024-01-30T01:28:33;29.42;;;15.68;;
59468;SDS011;45277;52.768;18.262;2024-01-30T01:30:04;31.35;;;15.40;;
59468;SDS011;45277;52.768;18.262;2024-01-30T01:31:38;32.28;;;15.98;;
59468;SDS011;45277;52.768;18.262;2024-01-30T01:33:13;29.90;;;16.05;;
59468;SDS011;45277;52.768;18.262;2024-01-30T01:34:45;33.85;;;16.40;;
59468;SDS011;45277;52.768;18.262;2024-01-30T01:36:16;31.65;;;16.10;;
59468;SDS011;45277;52.768;18.262;2024-01-30T01:37:48;28.42;;;15.65;;
59468;SDS011;45277;52.768;18.262;2024-01-30T01:39:25;28.52;;;15.77;;
59468;SDS011;45277;52.768;18.262;2024-01-30T01:40:56;32.17;;;15.68;;
59468;SDS011;45277;52.768;18.262;2024-01-30T01:42:27;33.75;;;16.52;;
59468;SDS011;45277;52.768;18.262;2024-01-30T01:43:59;27.63;;;15.73;;
59468;SDS011;45277;52.768;18.262;2024-01-30T01:45:31;34.33;;;16.80;;
59468;SDS011;45277;52.768;18.262;2024-01-30T01:47:02;35.97;;;15.70;;
59468;SDS011;45277;52.768;18.262;2024-01-30T01:48:33;30.30;;;15.20;;
59468;SDS011;45277;52.768;18.262;2024-01-30T01:50:05;34.95;;;17.10;;
59468;SDS011;45277;52.768;18.262;2024-01-30T01:51:36;32.85;;;17.08;;
59468;SDS011;45277;52.768;18.262;2024-01-30T01:53:09;28.90;;;15.27;;
59468;SDS011;45277;52.768;18.262;2024-01-30T01:54:41;37.72;;;16.55;;
59468;SDS011;45277;52.768;18.262;2024-01-30T01:56:12;35.28;;;17.17;;
59468;SDS011;45277;52.768;18.262;2024-01-30T01:57:44;30.65;;;16.58;;
59468;SDS011;45277;52.768;18.262;2024-01-30T01:59:16;27.55;;;16.20;;
59468;SDS011;45277;52.768;18.262;2024-01-30T02:03:28;36.80;;;18.53;;
59468;SDS011;45277;52.768;18.262;2024-01-30T02:05:01;33.28;;;16.70;;
59468;SDS011;45277;52.768;18.262;2024-01-30T02:06:33;35.63;;;17.02;;
59468;SDS011;45277;52.768;18.262;2024-01-30T02:08:06;30.55;;;15.98;;
59468;SDS011;45277;52.768;18.262;2024-01-30T02:09:38;32.10;;;15.48;;
59468;SDS011;45277;52.768;18.262;2024-01-30T02:11:09;30.83;;;17.55;;
59468;SDS011;45277;52.768;18.262;2024-01-30T02:12:42;28.67;;;15.45;;
59468;SDS011;45277;52.768;18.262;2024-01-30T02:14:13;32.35;;;15.43;;
59468;SDS011;45277;52.768;18.262;2024-01-30T02:15:48;33.05;;;16.30;;
59468;SDS011;45277;52.768;18.262;2024-01-30T02:17:21;30.00;;;15.52;;
59468;SDS011;45277;52.768;18.262;2024-01-30T02:18:53;26.65;;;15.68;;
59468;SDS011;45277;52.768;18.262;2024-01-30T02:20:25;35.22;;;16.17;;
59468;SDS011;45277;52.768;18.262;2024-01-30T02:21:59;38.40;;;16.95;;
59468;SDS011;45277;52.768;18.262;2024-01-30T02:23:30;29.00;;;15.35;;
59468;SDS011;45277;52.768;18.262;2024-01-30T02:25:04;31.17;;;16.33;;
59468;SDS011;45277;52.768;18.262;2024-01-30T02:26:35;31.13;;;15.60;;
59468;SDS011;45277;52.768;18.262;2024-01-30T02:28:06;32.58;;;15.45;;
59468;SDS011;45277;52.768;18.262;2024-01-30T02:29:37;28.45;;;15.25;;
59468;SDS011;45277;52.768;18.262;2024-01-30T02:31:09;30.73;;;17.42;;
59468;SDS011;45277;52.768;18.262;2024-01-30T02:32:40;32.28;;;15.43;;
59468;SDS011;45277;52.768;18.262;2024-01-30T02:34:11;26.48;;;14.75;;
59468;SDS011;45277;52.768;18.262;2024-01-30T02:35:43;33.97;;;15.73;;
59468;SDS011;45277;52.768;18.262;2024-01-30T02:37:14;28.20;;;14.35;;
59468;SDS011;45277;52.768;18.262;2024-01-30T02:38:46;25.38;;;14.77;;
59468;SDS011;45277;52.768;18.262;2024-01-30T02:40:18;30.80;;;14.00;;
59468;SDS011;45277;52.768;18.262;2024-01-30T02:41:49;34.08;;;16.08;;
59468;SDS011;45277;52.768;18.262;2024-01-30T02:43:20;28.58;;;15.25;;
59468;SDS011;45277;52.768;18.262;2024-01-30T02:44:52;30.27;;;14.48;;
59468;SDS011;45277;52.768;18.262;2024-01-30T02:46:23;33.72;;;15.43;;
59468;SDS011;45277;52.768;18.262;2024-01-30T02:47:54;26.02;;;14.75;;
59468;SDS011;45277;52.768;18.262;2024-01-30T02:49:26;27.17;;;14.70;;
59468;SDS011;45277;52.768;18.262;2024-01-30T02:50:57;31.55;;;15.60;;
59468;SDS011;45277;52.768;18.262;2024-01-30T02:52:28;32.28;;;15.40;;
59468;SDS011;45277;52.768;18.262;2024-01-30T02:54:00;27.38;;;15.35;;
59468;SDS011;45277;52.768;18.262;2024-01-30T02:55:31;33.70;;;16.17;;
59468;SDS011;45277;52.768;18.262;2024-01-30T02:57:03;29.58;;;16.00;;
59468;SDS011;45277;52.768;18.262;2024-01-30T02:58:35;35.78;;;16.48;;
59468;SDS011;45277;52.768;18.262;2024-01-30T03:00:07;31.75;;;15.63;;
59468;SDS011;45277;52.768;18.262;2024-01-30T03:01:45;28.35;;;15.60;;
59468;SDS011;45277;52.768;18.262;2024-01-30T03:03:17;30.77;;;16.05;;
59468;SDS011;45277;52.768;18.262;2024-01-30T03:04:48;35.08;;;17.05;;
59468;SDS011;45277;52.768;18.262;2024-01-30T03:06:19;32.53;;;16.67;;
59468;SDS011;45277;52.768;18.262;2024-01-30T03:07:52;31.20;;;16.15;;
59468;SDS011;45277;52.768;18.262;2024-01-30T03:09:23;34.55;;;17.48;;
59468;SDS011;45277;52.768;18.262;2024-01-30T03:10:54;39.80;;;18.40;;
59468;SDS011;45277;52.768;18.262;2024-01-30T03:12:26;38.28;;;18.25;;
59468;SDS011;45277;52.768;18.262;2024-01-30T03:13:57;33.95;;;17.17;;
59468;SDS011;45277;52.768;18.262;2024-01-30T03:15:28;28.65;;;16.60;;
59468;SDS011;45277;52.768;18.262;2024-01-30T03:17:00;29.15;;;17.00;;
59468;SDS011;45277;52.768;18.262;2024-01-30T03:18:31;36.83;;;18.35;;
59468;SDS011;45277;52.768;18.262;2024-01-30T03:20:02;34.25;;;18.80;;
59468;SDS011;45277;52.768;18.262;2024-01-30T03:21:35;32.63;;;19.67;;
59468;SDS011;45277;52.768;18.262;2024-01-30T03:23:06;36.67;;;21.38;;
59468;SDS011;45277;52.768;18.262;2024-01-30T03:24:37;31.70;;;17.48;;
59468;SDS011;45277;52.768;18.262;2024-01-30T03:26:09;34.58;;;19.50;;
59468;SDS011;45277;52.768;18.262;2024-01-30T03:27:41;33.33;;;18.27;;
59468;SDS011;45277;52.768;18.262;2024-01-30T03:29:12;41.67;;;20.52;;
59468;SDS011;45277;52.768;18.262;2024-01-30T03:30:44;37.92;;;21.15;;
59468;SDS011;45277;52.768;18.262;2024-01-30T03:32:15;36.03;;;19.80;;
59468;SDS011;45277;52.768;18.262;2024-01-30T03:33:46;33.78;;;18.88;;
59468;SDS011;45277;52.768;18.262;2024-01-30T03:35:18;36.20;;;19.20;;
59468;SDS011;45277;52.768;18.262;2024-01-30T03:36:50;31.73;;;18.35;;
59468;SDS011;45277;52.768;18.262;2024-01-30T03:38:21;38.55;;;18.05;;
59468;SDS011;45277;52.768;18.262;2024-01-30T03:39:52;39.97;;;20.05;;
59468;SDS011;45277;52.768;18.262;2024-01-30T03:41:23;32.83;;;18.67;;
59468;SDS011;45277;52.768;18.262;2024-01-30T03:42:54;35.60;;;19.10;;
59468;SDS011;45277;52.768;18.262;2024-01-30T03:44:26;34.67;;;17.75;;
59468;SDS011;45277;52.768;18.262;2024-01-30T03:45:57;37.75;;;18.48;;
59468;SDS011;45277;52.768;18.262;2024-01-30T03:47:28;37.22;;;18.42;;
59468;SDS011;45277;52.768;18.262;2024-01-30T03:49:00;34.03;;;18.60;;
59468;SDS011;45277;52.768;18.262;2024-01-30T03:50:31;40.50;;;20.25;;
59468;SDS011;45277;52.768;18.262;2024-01-30T03:52:02;40.65;;;20.20;;
59468;SDS011;45277;52.768;18.262;2024-01-30T03:53:34;38.78;;;21.08;;
59468;SDS011;45277;52.768;18.262;2024-01-30T03:55:05;36.20;;;20.05;;
59468;SDS011;45277;52.768;18.262;2024-01-30T03:56:37;36.67;;;19.35;;
59468;SDS011;45277;52.768;18.262;2024-01-30T03:58:08;36.97;;;21.45;;
59468;SDS011;45277;52.768;18.262;2024-01-30T03:59:41;37.58;;;20.00;;
59468;SDS011;45277;52.768;18.262;2024-01-30T04:01:13;37.33;;;19.98;;
59468;SDS011;45277;52.768;18.262;2024-01-30T04:02:45;39.35;;;20.38;;
59468;SDS011;45277;52.768;18.262;2024-01-30T04:04:19;42.53;;;20.60;;
59468;SDS011;45277;52.768;18.262;2024-01-30T04:05:53;40.58;;;20.45;;
59468;SDS011;45277;52.768;18.262;2024-01-30T04:07:25;34.83;;;18.35;;
59468;SDS011;45277;52.768;18.262;2024-01-30T04:08:56;36.90;;;20.30;;
59468;SDS011;45277;52.768;18.262;2024-01-30T04:10:27;40.95;;;20.33;;
59468;SDS011;45277;52.768;18.262;2024-01-30T04:11:59;40.38;;;22.35;;
59468;SDS011;45277;52.768;18.262;2024-01-30T04:13:30;38.30;;;19.10;;
59468;SDS011;45277;52.768;18.262;2024-01-30T04:15:02;38.05;;;20.23;;
59468;SDS011;45277;52.768;18.262;2024-01-30T04:16:34;38.35;;;19.38;;
59468;SDS011;45277;52.768;18.262;2024-01-30T04:18:06;42.42;;;19.08;;
59468;SDS011;45277;52.768;18.262;2024-01-30T04:19:37;34.63;;;19.58;;
59468;SDS011;45277;52.768;18.262;2024-01-30T04:21:09;34.92;;;19.15;;
59468;SDS011;45277;52.768;18.262;2024-01-30T04:22:41;39.40;;;19.38;;
59468;SDS011;45277;52.768;18.262;2024-01-30T04:24:16;37.15;;;19.33;;
59468;SDS011;45277;52.768;18.262;2024-01-30T04:26:04;37.97;;;19.65;;
59468;SDS011;45277;52.768;18.262;2024-01-30T04:27:35;35.88;;;19.98;;
59468;SDS011;45277;52.768;18.262;2024-01-30T04:29:07;36.58;;;19.85;;
59468;SDS011;45277;52.768;18.262;2024-01-30T04:30:38;40.00;;;19.90;;
59468;SDS011;45277;52.768;18.262;2024-01-30T04:32:10;42.38;;;21.52;;
59468;SDS011;45277;52.768;18.262;2024-01-30T04:33:41;38.67;;;21.40;;
59468;SDS011;45277;52.768;18.262;2024-01-30T04:35:13;40.55;;;21.20;;
59468;SDS011;45277;52.768;18.262;2024-01-30T04:36:44;36.13;;;19.83;;
59468;SDS011;45277;52.768;18.262;2024-01-30T04:38:16;39.15;;;19.60;;
59468;SDS011;45277;52.768;18.262;2024-01-30T04:39:47;39.65;;;20.35;;
59468;SDS011;45277;52.768;18.262;2024-01-30T04:41:19;39.83;;;19.88;;
59468;SDS011;45277;52.768;18.262;2024-01-30T04:42:50;37.47;;;19.85;;
59468;SDS011;45277;52.768;18.262;2024-01-30T04:44:21;38.58;;;18.85;;
59468;SDS011;45277;52.768;18.262;2024-01-30T04:45:52;40.63;;;19.35;;
59468;SDS011;45277;52.768;18.262;2024-01-30T04:47:24;39.88;;;19.77;;
59468;SDS011;45277;52.768;18.262;2024-01-30T04:48:55;38.40;;;19.70;;
59468;SDS011;45277;52.768;18.262;2024-01-30T04:50:26;36.17;;;18.95;;
59468;SDS011;45277;52.768;18.262;2024-01-30T04:51:57;34.00;;;19.17;;
59468;SDS011;45277;52.768;18.262;2024-01-30T04:53:30;38.75;;;20.58;;
59468;SDS011;45277;52.768;18.262;2024-01-30T04:55:01;38.72;;;20.42;;
59468;SDS011;45277;52.768;18.262;2024-01-30T04:56:32;37.60;;;20.27;;
59468;SDS011;45277;52.768;18.262;2024-01-30T04:58:05;38.38;;;20.38;;
59468;SDS011;45277;52.768;18.262;2024-01-30T04:59:36;40.92;;;20.65;;
59468;SDS011;45277;52.768;18.262;2024-01-30T05:01:07;39.08;;;19.35;;
59468;SDS011;45277;52.768;18.262;2024-01-30T05:02:39;33.65;;;19.00;;
59468;SDS011;45277;52.768;18.262;2024-01-30T05:04:10;37.10;;;18.52;;
59468;SDS011;45277;52.768;18.262;2024-01-30T05:05:41;34.88;;;17.55;;
59468;SDS011;45277;52.768;18.262;2024-01-30T05:07:13;33.58;;;18.17;;
59468;SDS011;45277;52.768;18.262;2024-01-30T05:08:44;33.20;;;17.92;;
59468;SDS011;45277;52.768;18.262;2024-01-30T05:10:15;31.90;;;16.85;;
59468;SDS011;45277;52.768;18.262;2024-01-30T05:11:47;34.10;;;17.23;;
59468;SDS011;45277;52.768;18.262;2024-01-30T05:13:18;33.28;;;18.17;;
59468;SDS011;45277;52.768;18.262;2024-01-30T05:14:49;29.48;;;15.73;;
59468;SDS011;45277;52.768;18.262;2024-01-30T05:16:20;30.42;;;16.05;;
59468;SDS011;45277;52.768;18.262;2024-01-30T05:17:52;34.35;;;18.00;;
59468;SDS011;45277;52.768;18.262;2024-01-30T05:19:23;32.78;;;16.50;;
59468;SDS011;45277;52.768;18.262;2024-01-30T05:20:54;34.63;;;18.88;;
59468;SDS011;45277;52.768;18.262;2024-01-30T05:22:25;32.42;;;17.98;;
59468;SDS011;45277;52.768;18.262;2024-01-30T05:23:56;28.60;;;16.05;;
59468;SDS011;45277;52.768;18.262;2024-01-30T05:25:28;31.60;;;17.08;;
59468;SDS011;45277;52.768;18.262;2024-01-30T05:26:59;36.40;;;18.38;;
59468;SDS011;45277;52.768;18.262;2024-01-30T05:28:30;33.95;;;19.17;;
59468;SDS011;45277;52.768;18.262;2024-01-30T05:30:02;36.58;;;19.70;;
59468;SDS011;45277;52.768;18.262;2024-01-30T05:31:34;41.25;;;18.58;;
59468;SDS011;45277;52.768;18.262;2024-01-30T05:33:05;38.58;;;20.88;;
59468;SDS011;45277;52.768;18.262;2024-01-30T05:34:37;39.92;;;22.50;;
59468;SDS011;45277;52.768;18.262;2024-01-30T05:36:08;39.05;;;22.13;;
59468;SDS011;45277;52.768;18.262;2024-01-30T05:37:42;39.20;;;19.35;;
59468;SDS011;45277;52.768;18.262;2024-01-30T05:39:13;39.08;;;21.35;;
59468;SDS011;45277;52.768;18.262;2024-01-30T05:40:44;46.65;;;20.83;;
59468;SDS011;45277;52.768;18.262;2024-01-30T05:42:16;39.03;;;19.52;;
59468;SDS011;45277;52.768;18.262;2024-01-30T05:43:47;40.45;;;20.58;;
59468;SDS011;45277;52.768;18.262;2024-01-30T05:45:18;40.10;;;21.63;;
59468;SDS011;45277;52.768;18.262;2024-01-30T05:46:50;37.83;;;20.30;;
59468;SDS011;45277;52.768;18.262;2024-01-30T05:48:21;42.78;;;20.27;;
59468;SDS011;45277;52.768;18.262;2024-01-30T05:49:53;45.67;;;21.60;;
59468;SDS011;45277;52.768;18.262;2024-01-30T05:51:24;43.15;;;19.73;;
59468;SDS011;45277;52.768;18.262;2024-01-30T05:52:55;42.30;;;19.20;;
59468;SDS011;45277;52.768;18.262;2024-01-30T05:54:26;42.25;;;20.73;;
59468;SDS011;45277;52.768;18.262;2024-01-30T05:55:58;40.17;;;20.42;;
59468;SDS011;45277;52.768;18.262;2024-01-30T05:57:30;43.65;;;21.98;;
59468;SDS011;45277;52.768;18.262;2024-01-30T05:59:01;36.13;;;20.20;;
59468;SDS011;45277;52.768;18.262;2024-01-30T06:00:32;35.88;;;20.17;;
59468;SDS011;45277;52.768;18.262;2024-01-30T06:02:04;40.95;;;20.42;;
59468;SDS011;45277;52.768;18.262;2024-01-30T06:03:35;37.22;;;20.73;;
59468;SDS011;45277;52.768;18.262;2024-01-30T06:05:06;39.65;;;19.98;;
59468;SDS011;45277;52.768;18.262;2024-01-30T06:06:38;37.92;;;19.33;;
59468;SDS011;45277;52.768;18.262;2024-01-30T06:08:09;38.22;;;18.65;;
59468;SDS011;45277;52.768;18.262;2024-01-30T06:09:40;35.95;;;18.23;;
59468;SDS011;45277;52.768;18.262;2024-01-30T06:11:12;34.22;;;17.92;;
59468;SDS011;45277;52.768;18.262;2024-01-30T06:12:43;27.40;;;17.63;;
59468;SDS011;45277;52.768;18.262;2024-01-30T06:14:14;34.28;;;18.60;;
59468;SDS011;45277;52.768;18.262;2024-01-30T06:15:46;34.95;;;18.60;;
59468;SDS011;45277;52.768;18.262;2024-01-30T06:17:17;41.83;;;20.15;;
59468;SDS011;45277;52.768;18.262;2024-01-30T06:18:48;33.60;;;17.73;;
59468;SDS011;45277;52.768;18.262;2024-01-30T06:20:19;31.50;;;17.80;;
59468;SDS011;45277;52.768;18.262;2024-01-30T06:21:51;37.85;;;18.92;;
59468;SDS011;45277;52.768;18.262;2024-01-30T06:23:22;36.17;;;18.83;;
59468;SDS011;45277;52.768;18.262;2024-01-30T06:24:53;42.15;;;22.30;;
59468;SDS011;45277;52.768;18.262;2024-01-30T06:26:24;47.83;;;23.38;;
59468;SDS011;45277;52.768;18.262;2024-01-30T06:27:55;41.97;;;20.40;;
59468;SDS011;45277;52.768;18.262;2024-01-30T06:29:27;34.00;;;18.02;;
59468;SDS011;45277;52.768;18.262;2024-01-30T06:31:00;36.45;;;18.98;;
59468;SDS011;45277;52.768;18.262;2024-01-30T06:32:31;32.28;;;17.48;;
59468;SDS011;45277;52.768;18.262;2024-01-30T06:34:05;33.20;;;17.35;;
59468;SDS011;45277;52.768;18.262;2024-01-30T06:35:36;32.58;;;18.42;;
59468;SDS011;45277;52.768;18.262;2024-01-30T06:37:10;37.70;;;19.02;;
59468;SDS011;45277;52.768;18.262;2024-01-30T06:38:41;40.40;;;17.58;;
59468;SDS011;45277;52.768;18.262;2024-01-30T06:40:13;33.50;;;17.48;;
59468;SDS011;45277;52.768;18.262;2024-01-30T06:41:47;33.30;;;19.00;;
59468;SDS011;45277;52.768;18.262;2024-01-30T06:43:19;41.90;;;20.20;;
59468;SDS011;45277;52.768;18.262;2024-01-30T06:44:50;51.08;;;19.83;;
59468;SDS011;45277;52.768;18.262;2024-01-30T06:46:21;34.70;;;17.85;;
59468;SDS011;45277;52.768;18.262;2024-01-30T06:47:53;49.35;;;20.60;;
59468;SDS011;45277;52.768;18.262;2024-01-30T06:49:24;42.63;;;21.63;;
59468;SDS011;45277;52.768;18.262;2024-01-30T06:50:56;45.72;;;20.00;;
59468;SDS011;45277;52.768;18.262;2024-01-30T06:52:28;41.05;;;19.27;;
59468;SDS011;45277;52.768;18.262;2024-01-30T06:53:59;45.35;;;21.02;;
59468;SDS011;45277;52.768;18.262;2024-01-30T06:55:30;39.22;;;19.90;;
59468;SDS011;45277;52.768;18.262;2024-01-30T06:57:02;53.55;;;22.15;;
59468;SDS011;45277;52.768;18.262;2024-01-30T06:58:33;54.15;;;23.73;;
59468;SDS011;45277;52.768;18.262;2024-01-30T07:00:05;47.72;;;21.45;;
59468;SDS011;45277;52.768;18.262;2024-01-30T07:01:37;55.92;;;23.02;;
59468;SDS011;45277;52.768;18.262;2024-01-30T07:03:08;56.58;;;24.02;;
59468;SDS011;45277;52.768;18.262;2024-01-30T07:04:39;61.38;;;24.52;;
59468;SDS011;45277;52.768;18.262;2024-01-30T07:06:12;54.00;;;24.83;;
59468;SDS011;45277;52.768;18.262;2024-01-30T07:07:44;47.42;;;23.13;;
59468;SDS011;45277;52.768;18.262;2024-01-30T07:09:15;52.53;;;23.27;;
59468;SDS011;45277;52.768;18.262;2024-01-30T07:10:46;43.67;;;21.20;;
59468;SDS011;45277;52.768;18.262;2024-01-30T07:12:18;47.85;;;21.17;;
59468;SDS011;45277;52.768;18.262;2024-01-30T07:13:51;49.00;;;22.45;;
59468;SDS011;45277;52.768;18.262;2024-01-30T07:15:23;44.15;;;19.25;;
59468;SDS011;45277;52.768;18.262;2024-01-30T07:16:54;40.10;;;17.65;;
59468;SDS011;45277;52.768;18.262;2024-01-30T07:18:25;36.92;;;18.25;;
59468;SDS011;45277;52.768;18.262;2024-01-30T07:19:57;36.55;;;17.75;;
59468;SDS011;45277;52.768;18.262;2024-01-30T07:21:28;37.65;;;18.55;;
59468;SDS011;45277;52.768;18.262;2024-01-30T07:22:59;40.67;;;17.65;;
59468;SDS011;45277;52.768;18.262;2024-01-30T07:24:31;38.50;;;18.58;;
59468;SDS011;45277;52.768;18.262;2024-01-30T07:26:02;37.17;;;18.08;;
59468;SDS011;45277;52.768;18.262;2024-01-30T07:27:33;35.22;;;16.98;;
59468;SDS011;45277;52.768;18.262;2024-01-30T07:29:04;42.22;;;18.42;;
59468;SDS011;45277;52.768;18.262;2024-01-30T07:30:36;30.73;;;16.20;;
59468;SDS011;45277;52.768;18.262;2024-01-30T07:32:07;36.20;;;15.82;;
59468;SDS011;45277;52.768;18.262;2024-01-30T07:33:39;33.15;;;15.68;;
59468;SDS011;45277;52.768;18.262;2024-01-30T07:35:10;35.70;;;15.07;;
59468;SDS011;45277;52.768;18.262;2024-01-30T07:36:41;33.55;;;15.88;;
59468;SDS011;45277;52.768;18.262;2024-01-30T07:38:13;30.95;;;15.13;;
59468;SDS011;45277;52.768;18.262;2024-01-30T07:39:44;37.08;;;16.25;;
59468;SDS011;45277;52.768;18.262;2024-01-30T07:41:15;38.05;;;17.85;;
59468;SDS011;45277;52.768;18.262;2024-01-30T07:42:48;32.88;;;16.20;;
59468;SDS011;45277;52.768;18.262;2024-01-30T07:44:20;43.03;;;18.45;;
59468;SDS011;45277;52.768;18.262;2024-01-30T07:45:51;43.30;;;18.33;;
59468;SDS011;45277;52.768;18.262;2024-01-30T07:47:23;48.80;;;19.65;;
59468;SDS011;45277;52.768;18.262;2024-01-30T07:48:54;46.15;;;19.70;;
59468;SDS011;45277;52.768;18.262;2024-01-30T07:50:26;53.80;;;19.95;;
59468;SDS011;45277;52.768;18.262;2024-01-30T07:51:58;45.75;;;18.67;;
59468;SDS011;45277;52.768;18.262;2024-01-30T07:53:30;39.92;;;17.85;;
59468;SDS011;45277;52.768;18.262;2024-01-30T07:55:01;36.40;;;16.42;;
59468;SDS011;45277;52.768;18.262;2024-01-30T07:56:34;39.13;;;16.98;;
59468;SDS011;45277;52.768;18.262;2024-01-30T07:58:05;35.55;;;17.38;;
59468;SDS011;45277;52.768;18.262;2024-01-30T07:59:37;38.17;;;16.63;;
59468;SDS011;45277;52.768;18.262;2024-01-30T08:01:08;48.67;;;19.42;;
59468;SDS011;45277;52.768;18.262;2024-01-30T08:02:39;43.75;;;19.58;;
59468;SDS011;45277;52.768;18.262;2024-01-30T08:04:10;43.35;;;17.98;;
59468;SDS011;45277;52.768;18.262;2024-01-30T08:05:42;41.78;;;18.20;;
59468;SDS011;45277;52.768;18.262;2024-01-30T08:07:13;44.47;;;19.13;;
59468;SDS011;45277;52.768;18.262;2024-01-30T08:08:44;44.97;;;20.15;;
59468;SDS011;45277;52.768;18.262;2024-01-30T08:10:16;48.70;;;19.70;;
59468;SDS011;45277;52.768;18.262;2024-01-30T08:11:49;46.97;;;19.63;;
59468;SDS011;45277;52.768;18.262;2024-01-30T08:13:20;75.88;;;27.05;;
59468;SDS011;45277;52.768;18.262;2024-01-30T08:14:51;86.30;;;31.75;;
59468;SDS011;45277;52.768;18.262;2024-01-30T08:16:23;113.88;;;35.17;;
59468;SDS011;45277;52.768;18.262;2024-01-30T08:17:54;85.63;;;28.88;;
59468;SDS011;45277;52.768;18.262;2024-01-30T08:19:28;83.53;;;30.10;;
59468;SDS011;45277;52.768;18.262;2024-01-30T08:20:59;101.88;;;31.50;;
59468;SDS011;45277;52.768;18.262;2024-01-30T08:22:31;77.57;;;27.80;;
59468;SDS011;45277;52.768;18.262;2024-01-30T08:24:05;39.15;;;17.38;;
59468;SDS011;45277;52.768;18.262;2024-01-30T08:25:37;85.40;;;28.50;;
59468;SDS011;45277;52.768;18.262;2024-01-30T08:27:08;64.93;;;24.60;;
59468;SDS011;45277;52.768;18.262;2024-01-30T08:28:43;77.47;;;26.75;;
59468;SDS011;45277;52.768;18.262;2024-01-30T08:30:14;52.88;;;23.13;;
59468;SDS011;45277;52.768;18.262;2024-01-30T08:31:45;49.65;;;21.05;;
59468;SDS011;45277;52.768;18.262;2024-01-30T08:33:17;46.72;;;20.52;;
59468;SDS011;45277;52.768;18.262;2024-01-30T08:34:48;36.00;;;18.00;;
59468;SDS011;45277;52.768;18.262;2024-01-30T08:36:19;45.67;;;21.55;;
59468;SDS011;45277;52.768;18.262;2024-01-30T08:37:51;47.92;;;19.80;;
59468;SDS011;45277;52.768;18.262;2024-01-30T08:39:22;50.05;;;20.58;;
59468;SDS011;45277;52.768;18.262;2024-01-30T08:40:54;35.38;;;17.80;;
59468;SDS011;45277;52.768;18.262;2024-01-30T08:42:26;41.45;;;17.65;;
59468;SDS011;45277;52.768;18.262;2024-01-30T08:43:57;32.20;;;16.17;;
59468;SDS011;45277;52.768;18.262;2024-01-30T08:45:28;35.42;;;15.63;;
59468;SDS011;45277;52.768;18.262;2024-01-30T08:47:00;30.50;;;15.40;;
59468;SDS011;45277;52.768;18.262;2024-01-30T08:48:31;26.17;;;12.88;;
59468;SDS011;45277;52.768;18.262;2024-01-30T08:50:02;37.35;;;16.20;;